Time;durP1;ratioP1;P1;durP2;ratioP2;P2;SDS_P1;SDS_P2;PMS_P1;PMS_P2;Temp;Humidity;BMP_temperature;BMP_pressure;BME280_temperature;BME280_humidity;BME280_pressure;Samples;Min_cycle;Max_cycle;Signal;HPM_P1;HPM_P2
2021/01/19 05:03:16;;;;;;;39.25;19.77;;;4.60;99.90;;;;;;4913029;29;20261;-68
2021/01/19 05:05:59;;;;;;;38.13;19.60;;;4.60;99.90;;;;;;4902895;29;20222;-70
2021/01/19 05:08:27;;;;;;;26.60;17.33;;;4.60;99.90;;;;;;4916027;29;20230;-69
2021/01/19 05:10:58;;;;;;;34.58;20.25;;;4.60;99.90;;;;;;4914420;29;20226;-68
2021/01/19 05:13:49;;;;;;;37.83;19.85;;;4.60;99.90;;;;;;4915679;29;20206;-68
2021/01/19 05:16:16;;;;;;;33.95;20.85;;;4.60;99.90;;;;;;4908762;29;20674;-68
2021/01/19 05:18:44;;;;;;;31.45;18.65;;;4.60;99.90;;;;;;4917691;29;20224;-68
2021/01/19 05:21:11;;;;;;;35.55;19.40;;;4.60;99.90;;;;;;4918547;29;20590;-68
2021/01/19 05:23:37;;;;;;;31.88;18.40;;;4.60;99.90;;;;;;4919080;29;20654;-67
2021/01/19 05:26:05;;;;;;;31.17;18.20;;;4.60;99.90;;;;;;4917875;29;20203;-69
2021/01/19 05:28:34;;;;;;;36.38;19.77;;;4.60;99.90;;;;;;4919813;29;20258;-69
2021/01/19 05:31:04;;;;;;;31.10;18.80;;;4.50;99.90;;;;;;4918889;29;20254;-67
2021/01/19 05:33:30;;;;;;;33.47;19.58;;;4.60;99.90;;;;;;4919228;29;20301;-69
2021/01/19 05:36:08;;;;;;;33.92;19.52;;;4.60;99.90;;;;;;4918654;29;20218;-68
2021/01/19 05:38:47;;;;;;;28.95;19.23;;;4.50;99.90;;;;;;4919075;29;20230;-68
2021/01/19 05:41:31;;;;;;;36.42;18.90;;;4.50;99.90;;;;;;4917808;29;20226;-69
2021/01/19 05:44:12;;;;;;;35.15;18.80;;;4.50;99.90;;;;;;4918883;29;20591;-69
2021/01/19 05:46:42;;;;;;;34.42;16.42;;;4.50;99.90;;;;;;4918799;29;20598;-67
2021/01/19 05:49:13;;;;;;;24.77;16.48;;;4.50;99.90;;;;;;4918738;29;20663;-66
2021/01/19 05:51:43;;;;;;;24.95;15.98;;;4.50;99.90;;;;;;4918177;29;20706;-66
2021/01/19 05:54:12;;;;;;;26.58;16.67;;;4.50;99.90;;;;;;4918916;29;20675;-66
2021/01/19 05:56:38;;;;;;;29.70;17.60;;;4.50;99.90;;;;;;4917056;29;20302;-67
2021/01/19 05:59:05;;;;;;;29.15;15.30;;;4.50;99.90;;;;;;4918806;29;20202;-67
2021/01/19 06:01:32;;;;;;;26.73;16.75;;;4.50;99.90;;;;;;4917859;29;20698;-67
2021/01/19 06:04:00;;;;;;;28.30;15.50;;;4.50;99.90;;;;;;4918867;29;20290;-67
2021/01/19 06:06:28;;;;;;;24.55;15.13;;;4.50;99.90;;;;;;4918071;29;20269;-67
2021/01/19 06:08:59;;;;;;;29.30;16.30;;;4.40;99.90;;;;;;4918605;29;20267;-67
2021/01/19 06:11:26;;;;;;;24.80;14.77;;;4.40;99.90;;;;;;4916061;29;20321;-67
2021/01/19 06:13:53;;;;;;;27.00;16.75;;;4.50;99.90;;;;;;4918323;29;20211;-67
2021/01/19 06:16:23;;;;;;;27.40;15.85;;;4.50;99.90;;;;;;4918294;29;20274;-67
2021/01/19 06:18:50;;;;;;;23.42;14.70;;;4.50;99.90;;;;;;4918396;29;20203;-68
2021/01/19 06:21:29;;;;;;;23.20;13.20;;;4.50;99.90;;;;;;4918176;29;20227;-67
2021/01/19 06:23:56;;;;;;;17.98;11.95;;;4.50;99.90;;;;;;4913477;29;20316;-67
2021/01/19 06:26:23;;;;;;;18.73;12.80;;;4.40;99.90;;;;;;4911259;29;20314;-67
2021/01/19 06:28:49;;;;;;;16.38;11.75;;;4.40;99.90;;;;;;4917699;29;20203;-68
2021/01/19 06:31:20;;;;;;;18.58;11.32;;;4.30;99.90;;;;;;4916641;29;20231;-68
2021/01/19 06:33:47;;;;;;;18.13;12.63;;;4.30;99.90;;;;;;4917009;29;20252;-68
2021/01/19 06:36:17;;;;;;;16.45;11.65;;;4.30;99.90;;;;;;4917381;29;20230;-67
2021/01/19 06:38:44;;;;;;;13.32;9.68;;;4.30;99.90;;;;;;4917798;29;20634;-67
2021/01/19 06:41:16;;;;;;;17.33;11.80;;;4.30;99.90;;;;;;4916249;29;20270;-67
2021/01/19 06:43:46;;;;;;;12.23;10.02;;;4.20;99.90;;;;;;4917151;29;20214;-67
2021/01/19 06:46:14;;;;;;;11.40;8.50;;;4.20;99.90;;;;;;4917138;29;20210;-67
2021/01/19 06:48:42;;;;;;;13.63;10.68;;;4.20;99.90;;;;;;4917452;29;20294;-68
2021/01/19 06:51:10;;;;;;;13.90;9.50;;;4.20;99.90;;;;;;4916861;29;20304;-68
2021/01/19 06:53:42;;;;;;;14.13;10.90;;;4.20;99.90;;;;;;4917331;29;20211;-67
2021/01/19 06:56:14;;;;;;;12.43;9.35;;;4.20;99.90;;;;;;4916461;29;20219;-67
2021/01/19 06:58:53;;;;;;;14.13;10.23;;;4.20;99.90;;;;;;4917108;29;20266;-68
2021/01/19 07:01:20;;;;;;;11.82;8.52;;;4.20;99.90;;;;;;4914335;29;20237;-67
2021/01/19 07:03:47;;;;;;;12.52;9.27;;;4.10;99.90;;;;;;4916619;29;20203;-66
2021/01/19 07:06:15;;;;;;;14.57;8.90;;;4.10;99.90;;;;;;4916699;29;20213;-67
2021/01/19 07:09:26;;;;;;;10.68;7.57;;;4.10;99.90;;;;;;4916785;29;20624;-66
2021/01/19 07:12:02;;;;;;;9.93;8.88;;;4.10;99.90;;;;;;4914903;29;20241;-66
2021/01/19 07:14:43;;;;;;;12.35;7.95;;;4.10;99.90;;;;;;4898761;29;20235;-66
2021/01/19 07:17:17;;;;;;;9.82;7.68;;;4.00;99.90;;;;;;4910275;29;20241;-67
2021/01/19 07:19:45;;;;;;;12.07;8.55;;;4.00;99.90;;;;;;4916719;29;20776;-66
2021/01/19 07:22:24;;;;;;;11.40;7.75;;;4.00;99.90;;;;;;4914677;29;20264;-67
2021/01/19 07:24:50;;;;;;;11.93;7.93;;;4.00;99.90;;;;;;4917333;29;20217;-67
2021/01/19 07:27:18;;;;;;;8.02;6.57;;;4.00;99.90;;;;;;4915706;29;20203;-67
2021/01/19 07:29:46;;;;;;;10.00;7.15;;;3.90;99.90;;;;;;4916843;29;20300;-68
2021/01/19 07:32:14;;;;;;;11.57;7.40;;;3.90;99.90;;;;;;4915784;29;20542;-67
2021/01/19 07:34:42;;;;;;;12.07;8.25;;;3.90;99.90;;;;;;4904646;29;20211;-67
2021/01/19 07:37:08;;;;;;;9.60;8.13;;;3.90;99.90;;;;;;4917316;29;20245;-68
2021/01/19 07:39:36;;;;;;;13.02;8.57;;;3.90;99.90;;;;;;4917915;29;20203;-68
2021/01/19 07:42:14;;;;;;;14.55;10.25;;;3.90;99.90;;;;;;4915187;29;20234;-68
2021/01/19 07:44:42;;;;;;;7.22;6.43;;;3.80;99.90;;;;;;4916261;29;20671;-68
2021/01/19 07:47:13;;;;;;;9.98;7.75;;;3.80;99.90;;;;;;4915967;28;20230;-68
2021/01/19 07:49:40;;;;;;;12.98;6.65;;;3.80;99.90;;;;;;4916891;29;20229;-68
2021/01/19 07:52:13;;;;;;;6.85;5.97;;;3.80;99.90;;;;;;4915912;29;20616;-66
2021/01/19 07:54:40;;;;;;;7.35;6.43;;;3.80;99.90;;;;;;4912693;29;20206;-68
2021/01/19 07:57:15;;;;;;;7.95;6.80;;;3.80;99.90;;;;;;4913156;29;20584;-67
2021/01/19 07:59:42;;;;;;;12.30;6.82;;;3.70;99.90;;;;;;4916068;29;20408;-67
2021/01/19 08:02:08;;;;;;;29.45;18.42;;;3.70;99.90;;;;;;4915337;29;20234;-67
2021/01/19 08:04:37;;;;;;;11.85;8.25;;;3.70;99.90;;;;;;4916331;29;20211;-67
2021/01/19 08:07:13;;;;;;;12.70;9.15;;;3.70;99.90;;;;;;4914394;29;20570;-67
2021/01/19 08:09:39;;;;;;;10.80;8.15;;;3.70;99.90;;;;;;4915415;29;20232;-67
2021/01/19 08:12:08;;;;;;;11.82;9.63;;;3.70;99.90;;;;;;4913938;29;20230;-68
2021/01/19 08:14:36;;;;;;;26.13;17.33;;;3.70;99.90;;;;;;4915896;29;20199;-67
2021/01/19 08:17:04;;;;;;;13.68;8.65;;;3.70;99.90;;;;;;4915796;29;20229;-68
2021/01/19 08:19:36;;;;;;;16.85;11.88;;;3.70;99.90;;;;;;4915178;29;20235;-67
2021/01/19 08:22:03;;;;;;;6.32;5.78;;;3.60;99.90;;;;;;4915327;29;20532;-67
2021/01/19 08:24:29;;;;;;;11.95;8.77;;;3.60;99.90;;;;;;4915377;29;20210;-67
2021/01/19 08:26:57;;;;;;;6.43;5.82;;;3.60;99.90;;;;;;4915477;29;20638;-68
2021/01/19 08:29:24;;;;;;;7.40;6.68;;;3.60;99.90;;;;;;4915985;29;20285;-67
2021/01/19 08:31:52;;;;;;;7.35;6.60;;;3.60;99.90;;;;;;4896345;29;20234;-67
2021/01/19 08:34:19;;;;;;;6.78;5.10;;;3.60;99.90;;;;;;4905363;29;20218;-68
2021/01/19 08:36:47;;;;;;;4.13;3.83;;;3.60;99.90;;;;;;4897186;29;20254;-67
2021/01/19 08:39:15;;;;;;;4.43;4.13;;;3.50;99.90;;;;;;4915666;29;20266;-66
2021/01/19 08:41:43;;;;;;;4.70;4.30;;;3.50;99.90;;;;;;4914464;29;20514;-66
2021/01/19 08:44:10;;;;;;;5.60;5.15;;;3.50;99.90;;;;;;4915860;29;20554;-66
2021/01/19 08:46:37;;;;;;;4.13;3.92;;;3.50;99.90;;;;;;4915647;29;20203;-66
2021/01/19 08:49:05;;;;;;;4.32;4.03;;;3.50;99.90;;;;;;4915979;29;20218;-66
2021/01/19 08:51:31;;;;;;;4.10;3.80;;;3.50;99.90;;;;;;4915853;29;20230;-67
2021/01/19 08:53:58;;;;;;;5.60;4.30;;;3.50;99.90;;;;;;4917894;29;20206;-67
2021/01/19 08:56:25;;;;;;;4.63;4.40;;;3.50;99.90;;;;;;4919016;29;20226;-67
2021/01/19 08:58:52;;;;;;;5.05;4.28;;;3.50;99.90;;;;;;4919900;29;20206;-67
2021/01/19 09:01:19;;;;;;;4.32;4.10;;;3.50;99.90;;;;;;4919604;29;20237;-68
2021/01/19 09:03:55;;;;;;;4.40;4.10;;;3.50;99.90;;;;;;4918050;29;20737;-70
2021/01/19 09:06:21;;;;;;;4.43;3.90;;;3.50;99.90;;;;;;4918339;29;20206;-68
2021/01/19 09:08:56;;;;;;;7.15;4.53;;;3.40;99.90;;;;;;4919381;29;20214;-68
2021/01/19 09:11:29;;;;;;;4.75;4.35;;;3.40;99.90;;;;;;4918450;29;20280;-67
2021/01/19 09:14:06;;;;;;;4.30;4.00;;;3.40;99.90;;;;;;4918791;29;20705;-68
2021/01/19 09:16:32;;;;;;;4.15;3.95;;;3.50;99.90;;;;;;4918630;29;20308;-67
2021/01/19 09:19:00;;;;;;;4.53;3.45;;;3.50;99.90;;;;;;4919303;29;20293;-67
2021/01/19 09:21:27;;;;;;;4.30;4.00;;;3.50;99.90;;;;;;4918960;29;20227;-67
2021/01/19 09:23:54;;;;;;;4.38;3.97;;;3.50;99.90;;;;;;4918735;29;20731;-67
2021/01/19 09:26:21;;;;;;;4.53;4.22;;;3.50;99.90;;;;;;4918381;29;20262;-67
2021/01/19 09:28:48;;;;;;;4.72;4.32;;;3.50;99.90;;;;;;4919048;29;20747;-68
2021/01/19 09:31:16;;;;;;;7.05;4.90;;;3.40;99.90;;;;;;4919263;29;20238;-67
2021/01/19 09:33:45;;;;;;;4.43;4.13;;;3.50;99.90;;;;;;4920158;29;20204;-68
2021/01/19 09:36:12;;;;;;;3.28;3.13;;;3.40;99.90;;;;;;4919246;29;20249;-68
2021/01/19 09:38:40;;;;;;;5.95;5.05;;;3.50;99.90;;;;;;4918982;29;20249;-68
2021/01/19 09:41:06;;;;;;;3.38;3.17;;;3.50;99.90;;;;;;4918287;29;20230;-68
2021/01/19 09:43:33;;;;;;;3.63;3.33;;;3.50;99.90;;;;;;4917803;29;20262;-69
2021/01/19 09:46:03;;;;;;;3.58;3.38;;;3.40;99.90;;;;;;4918635;29;20203;-68
2021/01/19 09:48:31;;;;;;;4.93;3.60;;;3.50;99.90;;;;;;4918878;29;20234;-67
2021/01/19 09:51:02;;;;;;;3.45;3.25;;;3.50;99.90;;;;;;4918165;29;20254;-66
2021/01/19 09:53:30;;;;;;;4.28;3.10;;;3.50;99.90;;;;;;4911745;29;20703;-67
2021/01/19 09:55:57;;;;;;;3.00;2.83;;;3.50;99.90;;;;;;4916658;29;20325;-67
2021/01/19 09:58:25;;;;;;;2.92;2.72;;;3.50;99.90;;;;;;4918951;29;20597;-67
2021/01/19 10:00:51;;;;;;;2.92;2.75;;;3.50;99.90;;;;;;4917489;29;20242;-66
2021/01/19 10:03:20;;;;;;;3.30;3.10;;;3.50;99.90;;;;;;4918464;29;20202;-69
2021/01/19 10:05:58;;;;;;;4.50;4.15;;;3.50;99.90;;;;;;4917351;29;20690;-67
2021/01/19 10:08:24;;;;;;;3.70;3.33;;;3.50;99.90;;;;;;4918874;29;20201;-66
2021/01/19 10:10:50;;;;;;;4.47;3.70;;;3.50;99.90;;;;;;4916583;29;20733;-68
2021/01/19 10:13:23;;;;;;;4.95;4.18;;;3.50;99.90;;;;;;4918153;29;20236;-67
2021/01/19 10:15:56;;;;;;;5.13;4.82;;;3.50;99.90;;;;;;4918077;29;20199;-67
2021/01/19 10:18:23;;;;;;;4.30;4.10;;;3.60;99.90;;;;;;4918056;29;20211;-67
2021/01/19 10:20:50;;;;;;;4.40;4.20;;;3.60;99.90;;;;;;4918113;29;20230;-66
2021/01/19 10:23:25;;;;;;;3.30;3.10;;;3.60;99.90;;;;;;4917263;29;20211;-68
2021/01/19 10:25:54;;;;;;;4.13;3.92;;;3.60;99.90;;;;;;4919655;29;20281;-66
2021/01/19 10:28:25;;;;;;;4.90;4.60;;;3.60;99.90;;;;;;4919949;29;20253;-66
2021/01/19 10:30:51;;;;;;;4.25;3.70;;;3.70;99.90;;;;;;4916839;29;20321;-68
2021/01/19 10:33:26;;;;;;;5.22;4.90;;;3.70;99.90;;;;;;4920080;29;20202;-67
2021/01/19 10:35:52;;;;;;;4.47;4.18;;;3.70;99.90;;;;;;4918931;29;20813;-66
2021/01/19 10:38:26;;;;;;;3.30;3.00;;;3.70;99.90;;;;;;4918604;29;20211;-67
2021/01/19 10:40:52;;;;;;;2.85;2.65;;;3.70;99.90;;;;;;4917135;29;20227;-67
2021/01/19 10:43:18;;;;;;;2.03;2.03;;;3.70;99.90;;;;;;4917621;29;20206;-67
2021/01/19 10:45:44;;;;;;;2.13;2.00;;;3.70;99.90;;;;;;4917122;29;20218;-67
2021/01/19 10:48:19;;;;;;;2.00;2.00;;;3.80;99.90;;;;;;4909942;29;20223;-66
2021/01/19 10:50:46;;;;;;;2.15;2.05;;;3.80;99.90;;;;;;4916550;29;20289;-66
2021/01/19 10:53:12;;;;;;;2.38;2.20;;;3.80;99.90;;;;;;4910215;29;20633;-66
2021/01/19 10:55:38;;;;;;;2.25;2.15;;;3.80;99.90;;;;;;4915827;29;20215;-67
2021/01/19 10:58:05;;;;;;;2.35;2.25;;;3.80;99.90;;;;;;4916115;29;20455;-67
2021/01/19 11:00:33;;;;;;;1.70;1.60;;;3.80;99.90;;;;;;4914678;29;20302;-66
2021/01/19 11:03:00;;;;;;;2.33;2.10;;;3.90;99.90;;;;;;4916528;29;20203;-68
2021/01/19 11:05:27;;;;;;;3.42;2.15;;;3.90;99.90;;;;;;4919044;29;20218;-66
2021/01/19 11:07:55;;;;;;;2.30;2.20;;;3.90;99.90;;;;;;4917449;29;20254;-66
2021/01/19 11:10:23;;;;;;;2.45;2.25;;;3.90;99.90;;;;;;4916785;29;20568;-66
2021/01/19 11:12:51;;;;;;;2.35;2.10;;;3.90;99.90;;;;;;4916167;29;20206;-66
2021/01/19 11:15:17;;;;;;;2.00;1.90;;;4.00;99.90;;;;;;4915987;29;20250;-67
2021/01/19 11:17:44;;;;;;;2.38;2.28;;;4.00;99.90;;;;;;4916005;29;20231;-68
2021/01/19 11:20:11;;;;;;;24.05;15.27;;;4.00;99.90;;;;;;4917381;29;20214;-67
2021/01/19 11:22:38;;;;;;;6.28;4.95;;;4.10;99.90;;;;;;4916692;29;20207;-67
2021/01/19 11:25:06;;;;;;;8.35;6.30;;;4.10;99.90;;;;;;4917402;29;20207;-67
2021/01/19 11:27:32;;;;;;;30.55;16.38;;;4.10;99.90;;;;;;4916050;29;20211;-68
2021/01/19 11:29:58;;;;;;;19.33;12.20;;;4.10;99.90;;;;;;4916767;29;20211;-68
2021/01/19 11:32:25;;;;;;;22.15;13.85;;;4.10;99.90;;;;;;4915697;29;20937;-68
2021/01/19 11:34:51;;;;;;;61.90;34.20;;;4.20;99.90;;;;;;4916168;29;20207;-67
2021/01/19 11:37:17;;;;;;;6.07;5.60;;;4.20;99.90;;;;;;4916069;29;20233;-68
2021/01/19 11:39:46;;;;;;;3.35;3.15;;;4.20;99.90;;;;;;4913910;29;20962;-68
2021/01/19 11:42:13;;;;;;;5.38;5.03;;;4.20;99.90;;;;;;4914355;29;20563;-67
2021/01/19 11:44:40;;;;;;;27.02;15.15;;;4.20;99.90;;;;;;4916323;29;20278;-68
2021/01/19 11:47:06;;;;;;;11.35;7.90;;;4.20;99.90;;;;;;4915984;29;20202;-67
2021/01/19 11:49:34;;;;;;;18.98;11.82;;;4.20;99.90;;;;;;4916198;29;20289;-67
2021/01/19 11:52:12;;;;;;;24.20;12.80;;;4.30;99.90;;;;;;4915529;29;20219;-67
2021/01/19 11:54:40;;;;;;;6.30;5.70;;;4.30;99.90;;;;;;4916477;29;20202;-67
2021/01/19 11:57:09;;;;;;;5.20;4.90;;;4.30;99.90;;;;;;4914778;29;20250;-67
2021/01/19 11:59:36;;;;;;;8.10;7.30;;;4.30;99.90;;;;;;4916404;29;20285;-66
2021/01/19 12:02:14;;;;;;;9.07;8.00;;;4.30;99.90;;;;;;4915291;29;20825;-66
2021/01/19 12:04:40;;;;;;;14.73;10.65;;;4.30;99.90;;;;;;4915828;29;20202;-66
2021/01/19 12:07:08;;;;;;;9.27;7.50;;;4.30;99.90;;;;;;4915696;29;20274;-67
2021/01/19 12:09:40;;;;;;;7.40;5.72;;;4.40;99.90;;;;;;4915626;29;20679;-67
2021/01/19 12:12:08;;;;;;;11.43;6.88;;;4.40;99.90;;;;;;4914381;29;20231;-66
2021/01/19 12:14:45;;;;;;;5.80;5.20;;;4.50;99.90;;;;;;4915985;29;20213;-66
2021/01/19 12:17:13;;;;;;;10.63;7.07;;;4.50;99.90;;;;;;4914071;29;20304;-66
2021/01/19 12:19:39;;;;;;;4.70;4.15;;;4.60;99.90;;;;;;4914250;29;20206;-66
2021/01/19 12:22:05;;;;;;;3.60;3.40;;;4.60;99.90;;;;;;4915094;29;20245;-66
2021/01/19 12:24:31;;;;;;;12.93;10.55;;;4.60;99.90;;;;;;4915478;29;20218;-67
2021/01/19 12:26:58;;;;;;;5.20;4.80;;;4.60;99.90;;;;;;4914720;29;20254;-66
2021/01/19 12:29:25;;;;;;;6.28;5.18;;;4.60;99.90;;;;;;4916100;29;20553;-67
2021/01/19 12:31:53;;;;;;;6.22;5.70;;;4.60;99.90;;;;;;4914804;29;20234;-67
2021/01/19 12:34:20;;;;;;;7.20;6.50;;;4.60;99.90;;;;;;4915389;29;20198;-68
2021/01/19 12:36:47;;;;;;;9.52;8.55;;;4.60;99.90;;;;;;4913340;29;20258;-69
2021/01/19 12:39:13;;;;;;;8.95;6.80;;;4.50;99.90;;;;;;4914962;29;20202;-68
2021/01/19 12:41:39;;;;;;;23.58;15.98;;;4.50;99.90;;;;;;4913514;29;20571;-68
2021/01/19 12:44:06;;;;;;;14.75;10.50;;;4.50;99.90;;;;;;4915653;29;20686;-67
2021/01/19 12:46:32;;;;;;;21.95;14.40;;;4.50;99.90;;;;;;4915661;29;20210;-68
2021/01/19 12:49:01;;;;;;;12.43;9.65;;;4.60;99.90;;;;;;4915086;29;20206;-68
2021/01/19 12:51:27;;;;;;;8.90;4.97;;;4.60;99.90;;;;;;4915250;29;20270;-67
2021/01/19 12:53:53;;;;;;;7.85;6.13;;;4.60;99.90;;;;;;4914717;29;20214;-68
2021/01/19 12:56:20;;;;;;;7.63;5.88;;;4.60;99.90;;;;;;4914710;29;20213;-68
2021/01/19 12:58:46;;;;;;;9.65;8.27;;;4.60;99.90;;;;;;4920585;29;20582;-68
2021/01/19 13:01:13;;;;;;;5.00;4.60;;;4.70;99.90;;;;;;4920913;29;20356;-69
2021/01/19 13:03:40;;;;;;;10.43;6.70;;;4.70;99.90;;;;;;4919758;29;20301;-68
2021/01/19 13:06:07;;;;;;;6.72;4.55;;;4.70;99.90;;;;;;4919495;29;20210;-69
2021/01/19 13:08:34;;;;;;;9.18;7.78;;;4.70;99.90;;;;;;4917676;29;20255;-67
2021/01/19 13:11:00;;;;;;;8.18;6.10;;;4.70;99.90;;;;;;4899342;29;20249;-68
2021/01/19 13:13:27;;;;;;;4.13;3.92;;;4.70;99.90;;;;;;4913141;29;20207;-68
2021/01/19 13:15:53;;;;;;;4.00;3.70;;;4.70;99.90;;;;;;4921006;29;20207;-68
2021/01/19 13:18:19;;;;;;;4.40;4.10;;;4.70;99.90;;;;;;4923286;29;20222;-69
2021/01/19 13:20:46;;;;;;;20.83;11.02;;;4.80;99.90;;;;;;4919701;29;20238;-69
2021/01/19 13:23:13;;;;;;;13.90;7.65;;;4.80;99.90;;;;;;4921565;29;20202;-68
2021/01/19 13:25:39;;;;;;;5.07;4.78;;;4.80;99.90;;;;;;4921291;29;20206;-68
2021/01/19 13:28:05;;;;;;;22.10;15.68;;;4.80;99.90;;;;;;4922145;29;20222;-70
2021/01/19 13:30:31;;;;;;;24.92;15.57;;;4.80;99.90;;;;;;4924915;29;20233;-69
2021/01/19 13:32:57;;;;;;;12.35;8.60;;;4.80;99.90;;;;;;4918865;29;20226;-69
2021/01/19 13:35:23;;;;;;;10.48;8.40;;;4.90;99.90;;;;;;4920068;29;20225;-70
2021/01/19 13:37:50;;;;;;;6.60;6.07;;;4.90;99.90;;;;;;4919007;29;20241;-69
2021/01/19 13:40:17;;;;;;;26.98;15.82;;;4.90;99.90;;;;;;4922226;29;20203;-68
2021/01/19 13:42:43;;;;;;;19.20;11.73;;;4.90;99.90;;;;;;4903636;29;20278;-69
2021/01/19 13:45:10;;;;;;;21.33;11.48;;;4.90;99.90;;;;;;4916043;29;20213;-70
2021/01/19 13:47:37;;;;;;;13.48;10.48;;;4.90;99.90;;;;;;4922846;29;20234;-69
2021/01/19 13:50:04;;;;;;;10.98;8.52;;;4.90;99.90;;;;;;4922574;29;20235;-69
2021/01/19 13:52:30;;;;;;;28.35;17.83;;;4.90;99.90;;;;;;4919815;29;20612;-69
2021/01/19 13:54:56;;;;;;;17.95;11.18;;;5.00;99.90;;;;;;4922387;29;20206;-69
2021/01/19 13:57:23;;;;;;;34.47;17.02;;;5.00;99.90;;;;;;4918259;29;20250;-69
2021/01/19 13:59:49;;;;;;;6.00;5.47;;;5.00;99.90;;;;;;4918776;29;20211;-69
2021/01/19 14:02:16;;;;;;;8.13;7.32;;;5.00;99.90;;;;;;4917795;29;20285;-68
2021/01/19 14:04:42;;;;;;;7.47;6.65;;;5.00;99.90;;;;;;4918302;29;20214;-69
2021/01/19 14:07:08;;;;;;;11.80;8.10;;;5.00;99.90;;;;;;4920022;29;20194;-69
2021/01/19 14:09:34;;;;;;;5.05;4.65;;;5.00;99.90;;;;;;4919589;29;20203;-69
2021/01/19 14:12:00;;;;;;;7.30;6.80;;;5.00;99.90;;;;;;4919326;29;20218;-69
2021/01/19 14:14:27;;;;;;;6.03;5.43;;;5.00;99.90;;;;;;4918743;29;20206;-69
2021/01/19 14:16:56;;;;;;;7.80;6.25;;;5.10;99.90;;;;;;4918183;29;20230;-67
2021/01/19 14:19:22;;;;;;;5.57;5.07;;;5.10;99.90;;;;;;4917900;29;20206;-69
2021/01/19 14:21:53;;;;;;;9.52;8.50;;;5.10;99.90;;;;;;4916641;29;20671;-69
2021/01/19 14:24:19;;;;;;;14.00;10.93;;;5.10;99.90;;;;;;4919987;29;20203;-69
2021/01/19 14:26:45;;;;;;;4.47;4.07;;;5.10;99.90;;;;;;4918700;29;20631;-69
2021/01/19 14:29:11;;;;;;;5.63;5.13;;;5.10;99.90;;;;;;4920670;29;20629;-70
2021/01/19 14:31:41;;;;;;;7.15;6.43;;;5.10;99.90;;;;;;4919470;29;20226;-68
2021/01/19 14:34:08;;;;;;;5.70;5.22;;;5.10;99.90;;;;;;4919698;29;20219;-69
2021/01/19 14:36:34;;;;;;;6.55;5.97;;;5.10;99.90;;;;;;4918920;29;20719;-67
2021/01/19 14:39:01;;;;;;;12.80;8.30;;;5.10;99.90;;;;;;4920101;29;20215;-68
2021/01/19 14:41:27;;;;;;;27.88;16.13;;;5.20;99.90;;;;;;4918738;29;20282;-69
2021/01/19 14:43:54;;;;;;;20.40;14.02;;;5.20;99.90;;;;;;4915150;29;20297;-68
2021/01/19 14:46:21;;;;;;;17.35;12.05;;;5.10;99.90;;;;;;4917848;29;20567;-68
2021/01/19 14:48:48;;;;;;;17.70;12.10;;;5.10;99.90;;;;;;4922091;29;20198;-68
2021/01/19 14:51:19;;;;;;;13.82;11.15;;;5.20;99.90;;;;;;4920974;29;20239;-68
2021/01/19 14:53:45;;;;;;;11.23;8.55;;;5.20;99.90;;;;;;4925228;29;20676;-68
2021/01/19 14:56:11;;;;;;;9.07;5.47;;;5.20;99.90;;;;;;4922435;29;20219;-68
2021/01/19 14:58:38;;;;;;;13.50;9.20;;;5.20;99.90;;;;;;4924910;29;20219;-68
2021/01/19 15:01:04;;;;;;;6.90;6.20;;;5.20;99.90;;;;;;4920127;29;20246;-69
2021/01/19 15:03:30;;;;;;;12.80;9.38;;;5.20;99.90;;;;;;4922528;29;20207;-69
2021/01/19 15:05:58;;;;;;;18.45;14.73;;;5.20;99.90;;;;;;4919782;29;20573;-67
2021/01/19 15:08:24;;;;;;;8.93;7.28;;;5.30;99.90;;;;;;4921096;29;20207;-69
2021/01/19 15:10:50;;;;;;;18.65;13.40;;;5.20;99.90;;;;;;4918654;29;20234;-69
2021/01/19 15:13:17;;;;;;;26.48;18.52;;;5.20;99.90;;;;;;4918639;29;20296;-67
2021/01/19 15:15:43;;;;;;;24.42;16.67;;;5.30;99.90;;;;;;4918311;29;20218;-68
2021/01/19 15:18:09;;;;;;;19.73;15.50;;;5.30;99.90;;;;;;4916769;29;20313;-70
2021/01/19 15:20:36;;;;;;;19.95;12.80;;;5.30;99.90;;;;;;4916599;29;20226;-68
2021/01/19 15:23:03;;;;;;;23.10;14.00;;;5.30;99.90;;;;;;4916778;29;20273;-68
2021/01/19 15:25:29;;;;;;;15.82;10.77;;;5.40;99.90;;;;;;4920593;29;20258;-69
2021/01/19 15:27:55;;;;;;;8.32;7.45;;;5.40;99.90;;;;;;4916357;29;20206;-68
2021/01/19 15:30:23;;;;;;;23.67;15.32;;;5.40;99.90;;;;;;4916362;29;20291;-69
2021/01/19 15:32:50;;;;;;;20.70;13.77;;;5.40;99.90;;;;;;4910577;29;20253;-67
2021/01/19 15:35:16;;;;;;;12.50;11.00;;;5.40;99.90;;;;;;4915301;29;20207;-68
2021/01/19 15:37:44;;;;;;;17.48;12.50;;;5.40;99.90;;;;;;4914955;29;20570;-69
2021/01/19 15:40:12;;;;;;;16.80;12.35;;;5.40;99.90;;;;;;4916674;29;20553;-68
2021/01/19 15:42:38;;;;;;;10.93;9.90;;;5.40;99.90;;;;;;4915667;29;20207;-68
2021/01/19 15:45:05;;;;;;;14.15;10.75;;;5.50;99.90;;;;;;4916094;29;20284;-69
2021/01/19 15:47:32;;;;;;;10.00;8.85;;;5.50;99.90;;;;;;4915748;29;20203;-68
2021/01/19 15:49:58;;;;;;;11.32;10.02;;;5.50;99.90;;;;;;4917263;29;20289;-68
2021/01/19 15:52:24;;;;;;;12.95;10.82;;;5.50;99.90;;;;;;4915903;29;20226;-67
2021/01/19 15:54:51;;;;;;;12.95;10.60;;;5.50;99.90;;;;;;4916371;29;20218;-68
2021/01/19 15:57:18;;;;;;;10.27;9.27;;;5.50;99.90;;;;;;4915493;29;20354;-68
2021/01/19 15:59:44;;;;;;;7.57;6.80;;;5.50;99.90;;;;;;4916217;29;20202;-68
2021/01/19 16:02:10;;;;;;;7.70;7.00;;;5.60;99.90;;;;;;4915033;29;20230;-69
2021/01/19 16:04:36;;;;;;;7.45;6.10;;;5.60;99.90;;;;;;4916263;29;20535;-68
2021/01/19 16:07:02;;;;;;;9.35;8.45;;;5.60;99.90;;;;;;4916192;29;20214;-68
2021/01/19 16:09:28;;;;;;;10.15;7.57;;;5.60;99.90;;;;;;4916446;29;20231;-68
2021/01/19 16:11:56;;;;;;;8.10;7.43;;;5.60;99.90;;;;;;4915199;29;20238;-68
2021/01/19 16:14:23;;;;;;;10.18;7.80;;;5.60;99.90;;;;;;4915861;29;20207;-69
2021/01/19 16:16:51;;;;;;;8.80;7.90;;;5.60;99.90;;;;;;4916191;29;20691;-67
2021/01/19 16:19:18;;;;;;;10.18;7.72;;;5.60;99.90;;;;;;4916761;29;20210;-69
2021/01/19 16:21:44;;;;;;;7.60;6.78;;;5.60;99.90;;;;;;4915176;29;20384;-66
2021/01/19 16:24:10;;;;;;;8.57;6.95;;;5.70;99.90;;;;;;4915310;29;20217;-67
2021/01/19 16:26:37;;;;;;;8.65;7.85;;;5.70;99.90;;;;;;4914509;29;20206;-67
2021/01/19 16:29:04;;;;;;;9.63;8.63;;;5.70;99.90;;;;;;4915733;29;20219;-67
2021/01/19 16:31:33;;;;;;;9.40;8.50;;;5.70;99.90;;;;;;4915557;29;20230;-67
2021/01/19 16:34:00;;;;;;;9.68;8.65;;;5.70;99.90;;;;;;4905341;29;20210;-67
2021/01/19 16:36:28;;;;;;;10.85;9.30;;;5.80;99.90;;;;;;4914851;29;20223;-68
2021/01/19 16:38:54;;;;;;;11.98;8.75;;;5.80;99.90;;;;;;4911662;29;20776;-67
2021/01/19 16:41:23;;;;;;;9.93;8.93;;;5.80;99.90;;;;;;4914671;29;20230;-66
2021/01/19 16:43:49;;;;;;;12.50;9.52;;;5.80;99.90;;;;;;4914288;29;20202;-67
2021/01/19 16:46:16;;;;;;;12.88;9.75;;;5.80;99.90;;;;;;4914967;29;20659;-68
2021/01/19 16:48:46;;;;;;;11.70;9.27;;;5.80;99.90;;;;;;4915281;29;20277;-67
2021/01/19 16:51:16;;;;;;;39.30;21.25;;;5.90;99.90;;;;;;4914864;29;20380;-66
2021/01/19 16:53:43;;;;;;;40.33;24.30;;;5.90;99.90;;;;;;4914984;29;20578;-67
2021/01/19 16:56:09;;;;;;;25.20;17.88;;;5.90;99.90;;;;;;4914027;29;20361;-66
2021/01/19 16:58:35;;;;;;;20.25;12.63;;;5.90;99.90;;;;;;4914597;29;20234;-67
2021/01/19 17:01:01;;;;;;;22.50;13.18;;;6.00;99.90;;;;;;4914602;29;20234;-67
2021/01/19 17:03:27;;;;;;;23.77;14.57;;;6.00;99.90;;;;;;4917365;29;20198;-66
2021/01/19 17:05:54;;;;;;;28.45;20.35;;;6.00;99.90;;;;;;4921225;29;20253;-66
2021/01/19 17:08:20;;;;;;;18.92;12.65;;;6.10;99.90;;;;;;4914610;29;20198;-67
2021/01/19 17:10:46;;;;;;;17.95;12.43;;;6.10;99.90;;;;;;4913218;29;20242;-66
2021/01/19 17:13:13;;;;;;;21.05;13.27;;;6.10;99.90;;;;;;4913814;29;20230;-66
2021/01/19 17:15:39;;;;;;;23.98;15.90;;;6.10;99.90;;;;;;4913994;29;20214;-65
2021/01/19 17:18:06;;;;;;;18.33;13.07;;;6.10;99.90;;;;;;4918804;29;20606;-66
2021/01/19 17:20:32;;;;;;;20.10;13.88;;;6.20;99.90;;;;;;4918348;29;20660;-66
2021/01/19 17:22:59;;;;;;;19.50;13.60;;;6.30;99.90;;;;;;4918168;29;20686;-67
2021/01/19 17:25:27;;;;;;;18.83;12.15;;;6.30;99.90;;;;;;4918261;29;20199;-67
2021/01/19 17:27:53;;;;;;;18.92;11.88;;;6.30;99.90;;;;;;4918363;29;20210;-67
2021/01/19 17:30:21;;;;;;;16.80;11.90;;;6.30;99.90;;;;;;4918419;29;20298;-66
2021/01/19 17:32:47;;;;;;;16.13;10.55;;;6.40;99.90;;;;;;4918014;29;20262;-68
2021/01/19 17:35:14;;;;;;;12.15;9.90;;;6.50;99.90;;;;;;4918497;29;20202;-67
2021/01/19 17:37:40;;;;;;;18.17;10.60;;;6.50;99.90;;;;;;4918421;29;20676;-67
2021/01/19 17:40:08;;;;;;;20.40;11.15;;;6.50;99.90;;;;;;4918219;29;20231;-66
2021/01/19 17:42:34;;;;;;;17.90;10.38;;;6.60;99.90;;;;;;4917462;29;20648;-68
2021/01/19 17:45:01;;;;;;;13.55;9.18;;;6.60;99.90;;;;;;4918458;29;20334;-67
2021/01/19 17:47:27;;;;;;;13.07;8.90;;;6.60;99.90;;;;;;4918204;29;20401;-66
2021/01/19 17:49:53;;;;;;;10.13;7.65;;;6.60;99.90;;;;;;4918078;29;20207;-67
2021/01/19 17:52:19;;;;;;;15.07;8.20;;;6.70;99.90;;;;;;4917760;29;20286;-67
2021/01/19 17:54:47;;;;;;;9.73;7.93;;;6.80;99.90;;;;;;4917936;29;20573;-67